Time;durP1;ratioP1;P1;durP2;ratioP2;P2;SDS_P1;SDS_P2;PMS_P1;PMS_P2;Temp;Humidity;BMP_temperature;BMP_pressure;BME280_temperature;BME280_humidity;BME280_pressure;Samples;Min_cycle;Max_cycle;Signal;HPM_P1;HPM_P2
2022/03/16 00:02:10;;;;;;;72.93;36.45;;;;;;;;;;5053275;28;20029;-60
2022/03/16 00:04:36;;;;;;;77.43;38.10;;;;;;;;;;5052053;28;20063;-61
2022/03/16 00:07:01;;;;;;;100.70;55.03;;;;;;;;;;5053491;28;20033;-60
2022/03/16 00:09:27;;;;;;;89.90;50.05;;;;;;;;;;5053145;28;20033;-60
2022/03/16 00:11:52;;;;;;;73.80;40.28;;;;;;;;;;5053335;28;20064;-61
2022/03/16 00:14:18;;;;;;;60.90;33.92;;;;;;;;;;5053487;28;20053;-61
2022/03/16 00:16:44;;;;;;;60.95;35.80;;;;;;;;;;5053321;28;20115;-61
2022/03/16 00:19:09;;;;;;;78.65;44.30;;;;;;;;;;5053214;28;20025;-61
2022/03/16 00:21:35;;;;;;;61.78;35.53;;;;;;;;;;5052976;28;20033;-61
2022/03/16 00:24:01;;;;;;;59.90;33.97;;;;;;;;;;5053087;28;20021;-61
2022/03/16 00:26:27;;;;;;;61.28;36.15;;;;;;;;;;5052962;28;20055;-61
2022/03/16 00:28:52;;;;;;;61.42;34.90;;;;;;;;;;5053038;28;20401;-61
2022/03/16 00:31:18;;;;;;;60.60;35.10;;;;;;;;;;5052853;28;20040;-61
2022/03/16 00:33:46;;;;;;;67.18;36.00;;;;;;;;;;5051712;28;20498;-61
2022/03/16 00:36:12;;;;;;;56.72;31.75;;;;;;;;;;5053143;28;20040;-61
2022/03/16 00:38:38;;;;;;;63.25;34.30;;;;;;;;;;5051859;28;20020;-64
2022/03/16 00:41:03;;;;;;;58.08;34.47;;;;;;;;;;5052820;28;20123;-65
2022/03/16 00:43:29;;;;;;;65.95;36.88;;;;;;;;;;5055820;28;20028;-65
2022/03/16 00:45:54;;;;;;;64.90;34.85;;;;;;;;;;5056842;28;20037;-65
2022/03/16 00:48:20;;;;;;;76.15;40.63;;;;;;;;;;5055451;28;20039;-65
2022/03/16 00:50:45;;;;;;;54.83;31.08;;;;;;;;;;5056499;28;20391;-65
2022/03/16 00:53:11;;;;;;;64.40;34.08;;;;;;;;;;5056447;28;20021;-65
2022/03/16 00:55:36;;;;;;;58.80;33.75;;;;;;;;;;5055406;28;20025;-65
2022/03/16 00:58:02;;;;;;;53.85;32.70;;;;;;;;;;5056715;28;20060;-64
2022/03/16 01:00:28;;;;;;;54.33;31.67;;;;;;;;;;5056357;28;20029;-65
2022/03/16 01:02:54;;;;;;;53.45;30.50;;;;;;;;;;5056072;28;20013;-64
2022/03/16 01:05:19;;;;;;;51.03;28.23;;;;;;;;;;5056327;28;20044;-65
2022/03/16 01:07:45;;;;;;;48.70;29.40;;;;;;;;;;5056304;28;20016;-65
2022/03/16 01:10:10;;;;;;;45.05;27.05;;;;;;;;;;5056210;28;20040;-65
2022/03/16 01:12:36;;;;;;;43.65;25.13;;;;;;;;;;5054725;28;20601;-65
2022/03/16 01:15:01;;;;;;;43.20;25.38;;;;;;;;;;5054669;28;20036;-65
2022/03/16 01:17:27;;;;;;;39.17;23.58;;;;;;;;;;5054832;28;20044;-65
2022/03/16 01:19:55;;;;;;;39.30;23.80;;;;;;;;;;5054622;28;20033;-65
2022/03/16 01:22:21;;;;;;;40.17;23.08;;;;;;;;;;5056066;28;20024;-64
2022/03/16 01:24:47;;;;;;;39.50;23.90;;;;;;;;;;5055575;28;20044;-64
2022/03/16 01:27:12;;;;;;;36.92;22.80;;;;;;;;;;5056004;28;20037;-64
2022/03/16 01:29:38;;;;;;;39.17;23.15;;;;;;;;;;5055858;28;20035;-65
2022/03/16 01:32:05;;;;;;;39.95;23.95;;;;;;;;;;5055733;28;20066;-65
2022/03/16 01:34:31;;;;;;;41.03;24.65;;;;;;;;;;5055496;28;20463;-61
2022/03/16 01:36:57;;;;;;;43.83;24.73;;;;;;;;;;5055506;28;20100;-61
2022/03/16 01:39:22;;;;;;;45.35;26.48;;;;;;;;;;5055647;28;20471;-61
2022/03/16 01:41:49;;;;;;;44.28;25.50;;;;;;;;;;5055709;28;20025;-61
2022/03/16 01:44:16;;;;;;;46.85;26.20;;;;;;;;;;5055707;28;20425;-61
2022/03/16 01:46:41;;;;;;;51.97;28.27;;;;;;;;;;5055617;28;20021;-61
2022/03/16 01:49:06;;;;;;;48.78;26.77;;;;;;;;;;5055801;28;20111;-61
2022/03/16 01:51:34;;;;;;;46.17;25.85;;;;;;;;;;5054285;28;20090;-61
2022/03/16 01:53:59;;;;;;;43.25;25.83;;;;;;;;;;5054642;28;20405;-61
2022/03/16 01:56:25;;;;;;;41.20;23.98;;;;;;;;;;5054161;28;20025;-64
2022/03/16 01:58:50;;;;;;;38.58;22.50;;;;;;;;;;5054222;28;20029;-65
2022/03/16 02:01:17;;;;;;;40.60;24.05;;;;;;;;;;5054238;28;20017;-65
2022/03/16 02:03:43;;;;;;;38.80;23.13;;;;;;;;;;5054019;28;20487;-65
2022/03/16 02:06:09;;;;;;;41.70;22.35;;;;;;;;;;5055240;28;20017;-61
2022/03/16 02:08:38;;;;;;;39.13;20.80;;;;;;;;;;5055201;28;20084;-61
2022/03/16 02:11:03;;;;;;;37.33;20.50;;;;;;;;;;5055301;28;20025;-61
2022/03/16 02:13:29;;;;;;;25.23;16.30;;;;;;;;;;5055204;28;20036;-61
2022/03/16 02:15:55;;;;;;;21.65;13.90;;;;;;;;;;5055146;28;20009;-61
2022/03/16 02:18:21;;;;;;;26.05;16.30;;;;;;;;;;5054974;28;20478;-61
2022/03/16 02:20:50;;;;;;;26.10;15.65;;;;;;;;;;5055018;28;20029;-61
2022/03/16 02:23:16;;;;;;;24.80;15.65;;;;;;;;;;5055078;28;20035;-61
2022/03/16 02:25:52;;;;;;;21.33;12.40;;;;;;;;;;5054078;28;20045;-61
2022/03/16 02:28:18;;;;;;;20.42;11.07;;;;;;;;;;5054743;28;20029;-60
2022/03/16 02:30:43;;;;;;;20.80;12.60;;;;;;;;;;5053264;28;20029;-60
2022/03/16 02:33:09;;;;;;;25.13;14.80;;;;;;;;;;5054919;28;20036;-60
2022/03/16 02:35:35;;;;;;;20.83;13.18;;;;;;;;;;5054718;28;20099;-61
2022/03/16 02:38:00;;;;;;;21.15;12.77;;;;;;;;;;5054681;28;20541;-61
2022/03/16 02:40:26;;;;;;;18.15;11.63;;;;;;;;;;5054526;28;20466;-61
2022/03/16 02:42:51;;;;;;;18.48;12.60;;;;;;;;;;5054504;28;20028;-61
2022/03/16 02:45:17;;;;;;;14.50;10.90;;;;;;;;;;5053169;28;20028;-61
2022/03/16 02:47:44;;;;;;;18.67;11.98;;;;;;;;;;5052961;28;20079;-61
2022/03/16 02:50:10;;;;;;;17.38;11.77;;;;;;;;;;5053581;28;20059;-61
2022/03/16 02:52:36;;;;;;;16.25;11.13;;;;;;;;;;5053167;28;20037;-64
2022/03/16 02:55:03;;;;;;;17.73;11.65;;;;;;;;;;5053073;28;20463;-64
2022/03/16 02:57:28;;;;;;;13.70;10.57;;;;;;;;;;5054297;28;20040;-65
2022/03/16 02:59:54;;;;;;;15.40;10.75;;;;;;;;;;5054257;28;20021;-65
2022/03/16 03:02:19;;;;;;;15.90;9.93;;;;;;;;;;5054123;28;20029;-65
2022/03/16 03:04:45;;;;;;;12.30;10.15;;;;;;;;;;5053995;28;20017;-65
2022/03/16 03:07:10;;;;;;;14.38;10.10;;;;;;;;;;5054099;28;20039;-65
2022/03/16 03:09:36;;;;;;;14.45;11.02;;;;;;;;;;5054108;28;20075;-64
2022/03/16 03:12:02;;;;;;;15.07;11.48;;;;;;;;;;5053998;28;20048;-65
2022/03/16 03:14:28;;;;;;;70.82;40.53;;;;;;;;;;5054051;28;20079;-65
2022/03/16 03:16:54;;;;;;;33.67;20.40;;;;;;;;;;5053739;28;20037;-65
2022/03/16 03:19:21;;;;;;;31.73;21.02;;;;;;;;;;5053743;28;20031;-65
2022/03/16 03:21:46;;;;;;;15.57;12.13;;;;;;;;;;5053693;28;20056;-64
2022/03/16 03:24:12;;;;;;;12.27;10.43;;;;;;;;;;5053636;28;20502;-64
2022/03/16 03:26:39;;;;;;;13.52;10.93;;;;;;;;;;5053737;28;20071;-65
2022/03/16 03:29:04;;;;;;;14.45;11.13;;;;;;;;;;5053931;28;20056;-65
2022/03/16 03:31:30;;;;;;;11.98;9.82;;;;;;;;;;5052213;28;20083;-64
2022/03/16 03:33:55;;;;;;;13.60;10.55;;;;;;;;;;5053687;28;20021;-65
2022/03/16 03:36:21;;;;;;;14.02;10.57;;;;;;;;;;5053836;28;20114;-65
2022/03/16 03:38:46;;;;;;;38.13;24.33;;;;;;;;;;5053702;28;20052;-65
2022/03/16 03:41:12;;;;;;;15.60;11.75;;;;;;;;;;5053486;28;20467;-65
2022/03/16 03:43:38;;;;;;;13.98;10.00;;;;;;;;;;5053357;28;20074;-65
2022/03/16 03:46:03;;;;;;;11.32;9.82;;;;;;;;;;5053155;28;20029;-65
2022/03/16 03:48:29;;;;;;;12.63;10.20;;;;;;;;;;5053663;28;20035;-65
2022/03/16 03:50:54;;;;;;;14.13;10.57;;;;;;;;;;5053580;28;20033;-64
2022/03/16 03:53:20;;;;;;;12.57;10.05;;;;;;;;;;5053417;28;20017;-64
2022/03/16 03:55:45;;;;;;;14.77;10.93;;;;;;;;;;5053177;28;20045;-61
2022/03/16 03:58:11;;;;;;;15.60;10.57;;;;;;;;;;5053356;28;20014;-60
2022/03/16 04:00:36;;;;;;;13.07;10.32;;;;;;;;;;5053247;28;20025;-61
2022/03/16 04:03:02;;;;;;;12.38;9.95;;;;;;;;;;5053142;28;20024;-61
2022/03/16 04:05:27;;;;;;;14.48;9.98;;;;;;;;;;5053353;28;20075;-60
2022/03/16 04:07:53;;;;;;;15.90;11.15;;;;;;;;;;5053313;28;20027;-61
2022/03/16 04:10:18;;;;;;;38.03;19.80;;;;;;;;;;5053327;28;20029;-60
2022/03/16 04:12:44;;;;;;;68.40;29.02;;;;;;;;;;5053096;28;20112;-61
2022/03/16 04:15:10;;;;;;;101.55;40.65;;;;;;;;;;5053334;28;20112;-60
2022/03/16 04:17:36;;;;;;;104.38;42.35;;;;;;;;;;5054754;28;20458;-61
2022/03/16 04:20:02;;;;;;;61.90;27.25;;;;;;;;;;5056905;28;20516;-61
2022/03/16 04:22:28;;;;;;;89.63;34.17;;;;;;;;;;5056076;28;20116;-61
2022/03/16 04:24:54;;;;;;;31.40;17.63;;;;;;;;;;5056635;28;20483;-61
2022/03/16 04:27:20;;;;;;;35.45;18.17;;;;;;;;;;5055875;28;20441;-61
2022/03/16 04:29:46;;;;;;;48.10;22.90;;;;;;;;;;5057216;28;20033;-64
2022/03/16 04:32:11;;;;;;;60.28;26.70;;;;;;;;;;5057096;28;20470;-65
2022/03/16 04:34:37;;;;;;;37.38;19.73;;;;;;;;;;5057124;28;20215;-65
2022/03/16 04:37:02;;;;;;;17.88;11.40;;;;;;;;;;5056962;28;20021;-65
2022/03/16 04:39:28;;;;;;;17.00;10.93;;;;;;;;;;5055519;28;20463;-72
2022/03/16 04:41:53;;;;;;;13.43;11.32;;;;;;;;;;5056822;28;20021;-69
2022/03/16 04:44:19;;;;;;;17.08;11.23;;;;;;;;;;5056729;28;20379;-69
2022/03/16 04:46:44;;;;;;;20.10;11.68;;;;;;;;;;5056858;28;20108;-69
2022/03/16 04:49:10;;;;;;;16.52;11.63;;;;;;;;;;5056881;28;20021;-69
2022/03/16 04:51:35;;;;;;;12.60;10.05;;;;;;;;;;5056502;28;20383;-69
2022/03/16 04:54:01;;;;;;;11.93;9.50;;;;;;;;;;5056500;28;20029;-69
2022/03/16 04:56:26;;;;;;;14.10;10.48;;;;;;;;;;5056780;28;20036;-69
2022/03/16 04:58:53;;;;;;;12.50;9.82;;;;;;;;;;5056664;28;20475;-69
2022/03/16 05:01:20;;;;;;;15.70;10.27;;;;;;;;;;5056393;28;20139;-69
2022/03/16 05:03:46;;;;;;;13.88;10.68;;;;;;;;;;5056353;28;20033;-69
2022/03/16 05:06:11;;;;;;;15.43;10.77;;;;;;;;;;5056323;28;20506;-69
2022/03/16 05:08:37;;;;;;;17.73;11.20;;;;;;;;;;5055071;28;20031;-69
2022/03/16 05:11:03;;;;;;;19.65;13.30;;;;;;;;;;5056453;28;20032;-69
2022/03/16 05:13:29;;;;;;;26.38;15.65;;;;;;;;;;5056172;28;20025;-69
2022/03/16 05:15:54;;;;;;;21.35;14.05;;;;;;;;;;5056095;28;20096;-69
2022/03/16 05:18:21;;;;;;;31.48;18.10;;;;;;;;;;5056374;28;20386;-69
2022/03/16 05:20:47;;;;;;;29.77;18.70;;;;;;;;;;5056108;28;20387;-69
2022/03/16 05:23:12;;;;;;;33.20;18.90;;;;;;;;;;5056253;28;20032;-69
2022/03/16 05:25:38;;;;;;;31.92;18.50;;;;;;;;;;5055471;28;20132;-69
2022/03/16 05:28:04;;;;;;;29.10;18.02;;;;;;;;;;5055854;28;20036;-69
2022/03/16 05:30:29;;;;;;;25.85;16.50;;;;;;;;;;5055543;28;20083;-69
2022/03/16 05:32:59;;;;;;;25.40;15.82;;;;;;;;;;5054381;28;20070;-69
2022/03/16 05:35:25;;;;;;;24.10;15.75;;;;;;;;;;5055239;28;20486;-69
2022/03/16 05:37:51;;;;;;;23.30;15.75;;;;;;;;;;5055480;28;20029;-69
2022/03/16 05:40:17;;;;;;;28.83;16.98;;;;;;;;;;5054227;28;20025;-69
2022/03/16 05:42:43;;;;;;;23.02;16.20;;;;;;;;;;5055237;28;20021;-69
2022/03/16 05:45:10;;;;;;;25.90;17.02;;;;;;;;;;5053980;28;20398;-69
2022/03/16 05:47:40;;;;;;;25.42;16.40;;;;;;;;;;5054123;28;20033;-69
2022/03/16 05:50:06;;;;;;;29.70;18.20;;;;;;;;;;5055157;28;20025;-69
2022/03/16 05:52:34;;;;;;;26.90;17.55;;;;;;;;;;5055097;28;20360;-69
2022/03/16 05:55:00;;;;;;;30.77;19.77;;;;;;;;;;5055243;28;20035;-69
2022/03/16 05:57:25;;;;;;;29.23;18.85;;;;;;;;;;5055074;28;20025;-69
2022/03/16 05:59:51;;;;;;;33.67;20.95;;;;;;;;;;5055002;28;20033;-69
2022/03/16 06:02:17;;;;;;;33.97;21.40;;;;;;;;;;5055066;28;20043;-69
2022/03/16 06:04:43;;;;;;;32.53;20.08;;;;;;;;;;5054904;28;20033;-69
2022/03/16 06:07:09;;;;;;;32.42;19.15;;;;;;;;;;5054904;28;20086;-69
2022/03/16 06:09:34;;;;;;;26.02;17.70;;;;;;;;;;5054821;28;20032;-69
2022/03/16 06:12:01;;;;;;;25.40;16.58;;;;;;;;;;5054597;28;20080;-69
2022/03/16 06:14:27;;;;;;;29.70;19.65;;;;;;;;;;5053430;28;20538;-69
2022/03/16 06:16:52;;;;;;;34.97;22.33;;;;;;;;;;5054620;28;20107;-69
2022/03/16 06:19:19;;;;;;;28.92;19.45;;;;;;;;;;5054577;28;20069;-68
2022/03/16 06:21:44;;;;;;;28.48;18.80;;;;;;;;;;5054483;28;20060;-69
2022/03/16 06:24:11;;;;;;;45.75;27.58;;;;;;;;;;5053285;28;20063;-69
2022/03/16 06:26:36;;;;;;;30.55;19.70;;;;;;;;;;5053170;28;20053;-68
2022/03/16 06:29:02;;;;;;;25.48;15.43;;;;;;;;;;5054167;28;20467;-69
2022/03/16 06:31:27;;;;;;;23.75;14.95;;;;;;;;;;5054198;28;20029;-69
2022/03/16 06:33:53;;;;;;;24.40;15.43;;;;;;;;;;5054318;28;20091;-68
2022/03/16 06:36:26;;;;;;;24.23;16.08;;;;;;;;;;5054266;28;20021;-69
2022/03/16 06:38:53;;;;;;;25.02;16.35;;;;;;;;;;5054239;28;20032;-68
2022/03/16 06:41:18;;;;;;;28.02;17.20;;;;;;;;;;5053589;28;20023;-68
2022/03/16 06:43:44;;;;;;;28.08;16.85;;;;;;;;;;5054124;28;20028;-68
2022/03/16 06:46:09;;;;;;;30.55;17.98;;;;;;;;;;5053994;28;20045;-68
2022/03/16 06:48:35;;;;;;;27.08;17.13;;;;;;;;;;5054136;28;20129;-69
2022/03/16 06:51:00;;;;;;;26.88;17.90;;;;;;;;;;5053933;28;20031;-68
2022/03/16 06:53:28;;;;;;;25.67;16.90;;;;;;;;;;5054007;28;20036;-69
2022/03/16 06:55:53;;;;;;;29.67;17.90;;;;;;;;;;5052764;28;20052;-68
2022/03/16 06:58:19;;;;;;;27.52;17.55;;;;;;;;;;5052543;28;20068;-68
2022/03/16 07:00:44;;;;;;;29.10;18.33;;;;;;;;;;5053753;28;20029;-68
2022/03/16 07:03:10;;;;;;;31.48;19.90;;;;;;;;;;5053843;28;20112;-69
2022/03/16 07:05:39;;;;;;;33.38;20.15;;;;;;;;;;5053776;28;20429;-68
2022/03/16 07:08:06;;;;;;;30.40;19.75;;;;;;;;;;5053755;28;20079;-68
2022/03/16 07:10:33;;;;;;;30.85;20.30;;;;;;;;;;5052304;28;20024;-68
2022/03/16 07:12:58;;;;;;;32.10;20.38;;;;;;;;;;5053197;28;20021;-69
2022/03/16 07:15:24;;;;;;;26.25;15.90;;;;;;;;;;5053438;28;20013;-68
2022/03/16 07:17:50;;;;;;;34.03;20.88;;;;;;;;;;5053455;28;20029;-68
2022/03/16 07:20:16;;;;;;;39.40;24.17;;;;;;;;;;5053339;28;20024;-68
2022/03/16 07:22:41;;;;;;;44.35;28.35;;;;;;;;;;5051999;28;20396;-68
2022/03/16 07:25:11;;;;;;;40.45;26.45;;;;;;;;;;5052794;28;20087;-68
2022/03/16 07:27:38;;;;;;;43.63;25.50;;;;;;;;;;5053420;28;20078;-69
2022/03/16 07:30:06;;;;;;;96.40;51.03;;;;;;;;;;5053422;28;20044;-68
2022/03/16 07:32:32;;;;;;;64.13;39.47;;;;;;;;;;5053243;28;20037;-68
2022/03/16 07:34:57;;;;;;;57.65;35.88;;;;;;;;;;5053231;28;20017;-68
2022/03/16 07:37:23;;;;;;;44.60;31.33;;;;;;;;;;5053230;28;20103;-68
2022/03/16 07:39:48;;;;;;;46.58;29.77;;;;;;;;;;5052981;28;20021;-68
2022/03/16 07:42:14;;;;;;;51.38;33.13;;;;;;;;;;5053066;28;20079;-68
2022/03/16 07:44:40;;;;;;;59.10;35.95;;;;;;;;;;5051772;28;20032;-69
2022/03/16 07:47:07;;;;;;;128.48;62.15;;;;;;;;;;5053045;28;20086;-68
2022/03/16 07:49:32;;;;;;;90.70;50.17;;;;;;;;;;5051732;28;20027;-68
2022/03/16 07:51:58;;;;;;;1137.60;608.15;;;;;;;;;;5052152;28;20041;-68
2022/03/16 07:54:23;;;;;;;428.42;249.25;;;;;;;;;;5052890;28;20067;-68
2022/03/16 07:56:49;;;;;;;1118.47;642.42;;;;;;;;;;5053066;28;20017;-68
2022/03/16 07:59:15;;;;;;;1034.35;562.70;;;;;;;;;;5052967;28;20041;-68
2022/03/16 08:01:41;;;;;;;142.98;82.78;;;;;;;;;;5053027;28;20067;-68
2022/03/16 08:04:07;;;;;;;859.83;411.73;;;;;;;;;;5052940;28;20032;-68
2022/03/16 08:06:34;;;;;;;102.22;59.90;;;;;;;;;;5052819;28;20032;-69
2022/03/16 08:08:59;;;;;;;1928.43;659.53;;;;;;;;;;5052815;28;20013;-68
2022/03/16 08:11:25;;;;;;;676.83;258.08;;;;;;;;;;5052654;28;20124;-68
2022/03/16 08:13:51;;;;;;;99.75;48.67;;;;;;;;;;5051499;28;20051;-68
2022/03/16 08:16:16;;;;;;;455.27;163.88;;;;;;;;;;5052754;28;20033;-68
2022/03/16 08:18:42;;;;;;;58.10;38.47;;;;;;;;;;5052620;28;20013;-69
2022/03/16 08:21:07;;;;;;;97.80;46.47;;;;;;;;;;5051467;28;20430;-68
2022/03/16 08:23:33;;;;;;;58.72;36.20;;;;;;;;;;5052702;28;20025;-69
2022/03/16 08:25:58;;;;;;;42.97;27.25;;;;;;;;;;5050906;28;20049;-68
2022/03/16 08:28:24;;;;;;;52.38;31.48;;;;;;;;;;5052810;28;20036;-69
2022/03/16 08:30:50;;;;;;;1492.55;630.33;;;;;;;;;;5052556;28;20033;-68
2022/03/16 08:33:17;;;;;;;105.20;54.58;;;;;;;;;;5052551;28;20031;-69
2022/03/16 08:35:43;;;;;;;41.20;30.23;;;;;;;;;;5052543;28;20387;-69
2022/03/16 08:38:08;;;;;;;610.83;316.88;;;;;;;;;;5051334;28;20104;-69
2022/03/16 08:40:34;;;;;;;40.60;28.27;;;;;;;;;;5052539;28;20036;-69
2022/03/16 08:42:59;;;;;;;38.80;26.25;;;;;;;;;;5052500;28;20099;-69
2022/03/16 08:45:25;;;;;;;35.25;25.55;;;;;;;;;;5052497;28;20573;-69
2022/03/16 08:47:50;;;;;;;31.40;23.60;;;;;;;;;;5052498;28;20047;-69
2022/03/16 08:50:16;;;;;;;33.08;23.58;;;;;;;;;;5052381;28;20540;-69
2022/03/16 08:52:41;;;;;;;40.78;25.95;;;;;;;;;;5052315;28;20075;-69
2022/03/16 08:55:07;;;;;;;35.45;23.88;;;;;;;;;;5052335;28;20025;-69
2022/03/16 08:57:33;;;;;;;232.10;150.32;;;;;;;;;;5052270;28;20013;-69
2022/03/16 08:59:59;;;;;;;41.00;27.42;;;;;;;;;;5052394;28;20025;-69
2022/03/16 09:02:24;;;;;;;41.05;25.73;;;;;;;;;;5051035;28;20478;-69
2022/03/16 09:04:51;;;;;;;70.82;41.05;;;;;;;;;;5055655;28;20020;-69
2022/03/16 09:07:16;;;;;;;34.83;22.08;;;;;;;;;;5056029;28;20021;-69
2022/03/16 09:09:42;;;;;;;32.80;22.45;;;;;;;;;;5054754;28;20360;-69
2022/03/16 09:12:11;;;;;;;35.05;23.70;;;;;;;;;;5055759;28;20067;-69
2022/03/16 09:14:37;;;;;;;33.70;21.67;;;;;;;;;;5054549;28;20049;-69
2022/03/16 09:17:03;;;;;;;37.83;25.38;;;;;;;;;;5055786;28;20022;-69
2022/03/16 09:19:28;;;;;;;47.85;29.70;;;;;;;;;;5055695;28;20031;-69
2022/03/16 09:21:54;;;;;;;32.13;24.83;;;;;;;;;;5055801;28;20532;-69
2022/03/16 09:24:19;;;;;;;46.35;27.67;;;;;;;;;;5055427;28;20061;-69
2022/03/16 09:26:45;;;;;;;59.72;33.33;;;;;;;;;;5055459;28;20045;-69
2022/03/16 09:29:11;;;;;;;42.50;25.48;;;;;;;;;;5055802;28;20067;-69
2022/03/16 09:31:38;;;;;;;29.77;21.27;;;;;;;;;;5054192;28;20120;-69
2022/03/16 09:34:07;;;;;;;34.90;25.00;;;;;;;;;;5055517;28;20017;-69
2022/03/16 09:36:37;;;;;;;37.55;24.85;;;;;;;;;;5055453;28;20056;-69
2022/03/16 09:39:03;;;;;;;63.88;32.47;;;;;;;;;;5054215;28;20032;-69
2022/03/16 09:41:28;;;;;;;36.83;24.40;;;;;;;;;;5055272;28;20033;-69
2022/03/16 09:43:54;;;;;;;31.77;21.92;;;;;;;;;;5055343;28;20028;-69
2022/03/16 09:46:28;;;;;;;37.97;23.95;;;;;;;;;;5055317;28;20117;-69
2022/03/16 09:48:54;;;;;;;207.70;129.00;;;;;;;;;;5055157;28;20032;-69
2022/03/16 09:51:20;;;;;;;45.33;26.90;;;;;;;;;;5055151;28;20024;-69
2022/03/16 09:53:46;;;;;;;42.50;25.92;;;;;;;;;;5053896;28;20111;-69
2022/03/16 09:56:12;;;;;;;42.45;27.20;;;;;;;;;;5055160;28;20056;-69
2022/03/16 09:58:38;;;;;;;38.95;23.92;;;;;;;;;;5055082;28;20025;-69
2022/03/16 10:01:07;;;;;;;33.08;22.30;;;;;;;;;;5055114;28;20029;-69
2022/03/16 10:03:34;;;;;;;48.22;28.08;;;;;;;;;;5055040;28;20040;-69
2022/03/16 10:05:59;;;;;;;63.00;35.35;;;;;;;;;;5054946;28;20112;-69
2022/03/16 10:08:26;;;;;;;57.10;28.20;;;;;;;;;;5054770;28;20474;-69
2022/03/16 10:13:48;;;;;;;38.35;24.27;;;;;;;;;;5053561;28;20033;-69
2022/03/16 10:16:13;;;;;;;74.25;42.55;;;;;;;;;;5053871;28;20021;-69
2022/03/16 10:18:39;;;;;;;59.58;39.42;;;;;;;;;;5054779;28;20428;-69
2022/03/16 10:21:04;;;;;;;77.50;36.35;;;;;;;;;;5054620;28;20025;-69
2022/03/16 10:23:30;;;;;;;55.53;30.42;;;;;;;;;;5054665;28;20037;-69
2022/03/16 10:25:59;;;;;;;46.42;31.45;;;;;;;;;;5052826;28;20056;-69
2022/03/16 10:28:26;;;;;;;33.70;28.73;;;;;;;;;;5054508;28;20391;-69
2022/03/16 10:30:57;;;;;;;32.28;24.67;;;;;;;;;;5054224;28;20430;-69
2022/03/16 10:33:43;;;;;;;36.03;26.70;;;;;;;;;;5054454;28;20039;-69
2022/03/16 10:36:11;;;;;;;32.08;24.77;;;;;;;;;;5052757;28;20422;-69
2022/03/16 10:38:53;;;;;;;29.42;21.52;;;;;;;;;;5053005;28;20028;-69
2022/03/16 10:46:56;;;;;;;25.13;18.10;;;;;;;;;;5043653;28;20072;-69
2022/03/16 10:49:22;;;;;;;25.90;18.35;;;;;;;;;;5054078;28;20634;-69
2022/03/16 10:52:07;;;;;;;24.98;17.92;;;;;;;;;;5053984;28;20028;-69
2022/03/16 10:54:34;;;;;;;23.17;16.60;;;;;;;;;;5053996;28;20070;-69
2022/03/16 10:57:01;;;;;;;23.48;17.23;;;;;;;;;;5053989;28;20024;-69
2022/03/16 10:59:29;;;;;;;19.52;16.55;;;;;;;;;;5052766;28;20486;-69
2022/03/16 11:02:01;;;;;;;34.30;19.75;;;;;;;;;;5053936;28;20024;-69
2022/03/16 11:04:32;;;;;;;24.20;18.40;;;;;;;;;;5053647;28;20104;-69
2022/03/16 11:06:59;;;;;;;23.17;16.47;;;;;;;;;;5053762;28;20041;-69
2022/03/16 11:09:24;;;;;;;20.75;15.98;;;;;;;;;;5053620;28;20028;-69
2022/03/16 11:14:35;;;;;;;21.10;15.05;;;;;;;;;;5053617;28;20378;-69
2022/03/16 11:17:01;;;;;;;20.60;16.20;;;;;;;;;;5053518;28;20017;-69
2022/03/16 11:19:27;;;;;;;34.45;20.85;;;;;;;;;;5052175;28;20029;-69
2022/03/16 11:21:59;;;;;;;25.58;20.80;;;;;;;;;;5053297;28;20115;-69
2022/03/16 11:24:26;;;;;;;32.15;23.98;;;;;;;;;;5052283;28;20031;-69
2022/03/16 11:26:51;;;;;;;34.22;22.92;;;;;;;;;;5051836;28;20107;-69
2022/03/16 11:29:38;;;;;;;21.15;15.05;;;;;;;;;;5053332;28;20029;-69
2022/03/16 11:32:08;;;;;;;20.75;16.33;;;;;;;;;;5053480;28;20075;-69
2022/03/16 11:34:35;;;;;;;21.92;14.20;;;;;;;;;;5053288;28;20028;-69
2022/03/16 11:37:02;;;;;;;18.08;14.73;;;;;;;;;;5053170;28;20467;-69
2022/03/16 11:39:38;;;;;;;18.88;13.40;;;;;;;;;;5053106;28;20462;-69
2022/03/16 11:42:06;;;;;;;46.03;25.33;;;;;;;;;;5053314;28;20490;-69
2022/03/16 11:44:32;;;;;;;17.35;13.05;;;;;;;;;;5053167;28;20025;-69
2022/03/16 11:47:10;;;;;;;22.92;15.68;;;;;;;;;;5051806;28;20040;-69
2022/03/16 11:49:38;;;;;;;37.83;20.90;;;;;;;;;;5053091;28;20083;-69
2022/03/16 11:52:04;;;;;;;19.70;16.38;;;;;;;;;;5051917;28;20027;-69
2022/03/16 11:54:46;;;;;;;18.23;13.73;;;;;;;;;;5052956;28;20057;-69
2022/03/16 11:57:15;;;;;;;23.90;15.77;;;;;;;;;;5053025;28;20087;-69
2022/03/16 11:59:46;;;;;;;17.60;13.70;;;;;;;;;;5052683;28;20109;-69
2022/03/16 12:02:22;;;;;;;17.45;13.90;;;;;;;;;;5051617;28;20428;-69
2022/03/16 12:04:48;;;;;;;14.52;11.15;;;;;;;;;;5051806;28;20071;-69
2022/03/16 12:07:21;;;;;;;16.90;11.70;;;;;;;;;;5052739;28;20079;-69
2022/03/16 12:09:50;;;;;;;16.48;11.93;;;;;;;;;;5052896;28;20021;-69
2022/03/16 12:15:03;;;;;;;37.70;22.98;;;;;;;;;;5052842;28;20029;-69
2022/03/16 12:17:29;;;;;;;19.27;14.27;;;;;;;;;;5051750;28;20063;-69
2022/03/16 12:20:17;;;;;;;11.25;9.15;;;;;;;;;;5052784;28;20037;-69
2022/03/16 12:22:47;;;;;;;16.55;12.55;;;;;;;;;;5052859;28;20039;-69
2022/03/16 12:25:33;;;;;;;14.48;10.98;;;;;;;;;;5052196;28;20033;-69
2022/03/16 12:30:50;;;;;;;14.35;11.18;;;;;;;;;;5052789;28;20043;-69
2022/03/16 12:33:19;;;;;;;14.77;11.85;;;;;;;;;;5052727;28;20051;-69
2022/03/16 12:35:45;;;;;;;15.48;10.65;;;;;;;;;;5052747;28;20013;-69
2022/03/16 12:38:11;;;;;;;14.80;11.70;;;;;;;;;;5053672;28;20067;-69
2022/03/16 12:42:31;;;;;;;14.45;11.45;;;;;;;;;;5056506;28;20021;-69
2022/03/16 12:43:28;;;;;;;15.18;11.40;;;;;;;;;;5056649;28;20504;-69
2022/03/16 12:46:07;;;;;;;15.43;11.27;;;;;;;;;;5056420;28;20427;-69
2022/03/16 12:48:33;;;;;;;12.45;10.30;;;;;;;;;;5056565;28;20498;-69
2022/03/16 12:51:00;;;;;;;14.68;12.25;;;;;;;;;;5056363;28;20474;-69
2022/03/16 12:53:40;;;;;;;17.08;13.38;;;;;;;;;;5056465;28;20514;-69
2022/03/16 12:56:09;;;;;;;21.17;15.50;;;;;;;;;;5056460;28;20036;-69
2022/03/16 12:58:35;;;;;;;30.52;18.38;;;;;;;;;;5056360;28;20139;-69
2022/03/16 13:01:01;;;;;;;24.08;17.40;;;;;;;;;;5054907;28;20029;-69
2022/03/16 13:03:26;;;;;;;20.95;15.43;;;;;;;;;;5056184;28;20021;-69
2022/03/16 13:05:52;;;;;;;16.50;13.60;;;;;;;;;;5056121;28;20031;-69
2022/03/16 13:08:18;;;;;;;18.85;15.27;;;;;;;;;;5056185;28;20100;-69
2022/03/16 13:13:28;;;;;;;24.38;19.42;;;;;;;;;;5056124;28;20025;-69
2022/03/16 13:15:59;;;;;;;31.30;21.48;;;;;;;;;;5054840;28;20040;-69
2022/03/16 13:18:29;;;;;;;28.95;18.85;;;;;;;;;;5055991;28;20086;-69
2022/03/16 13:20:55;;;;;;;38.70;25.15;;;;;;;;;;5055816;28;20079;-69
2022/03/16 13:23:33;;;;;;;28.83;19.25;;;;;;;;;;5055912;28;20033;-69
2022/03/16 13:26:10;;;;;;;20.67;14.43;;;;;;;;;;5055422;28;20072;-69
2022/03/16 13:28:39;;;;;;;18.30;14.10;;;;;;;;;;5054731;28;20087;-69
2022/03/16 13:31:05;;;;;;;19.38;14.20;;;;;;;;;;5055739;28;20033;-69
2022/03/16 13:33:30;;;;;;;18.23;13.10;;;;;;;;;;5055725;28;20031;-69
2022/03/16 13:36:09;;;;;;;19.70;13.95;;;;;;;;;;5055619;28;20021;-69
2022/03/16 13:38:37;;;;;;;17.73;13.43;;;;;;;;;;5055484;28;20071;-69
2022/03/16 13:41:14;;;;;;;21.50;14.95;;;;;;;;;;5055551;28;20470;-69
2022/03/16 13:43:41;;;;;;;20.30;14.25;;;;;;;;;;5055441;28;20029;-69
2022/03/16 13:46:09;;;;;;;21.73;14.68;;;;;;;;;;5055426;28;20025;-69
2022/03/16 13:48:42;;;;;;;20.60;14.10;;;;;;;;;;5053792;28;20071;-69
2022/03/16 13:51:09;;;;;;;14.82;12.13;;;;;;;;;;5054159;28;20037;-69
2022/03/16 13:53:43;;;;;;;19.02;13.95;;;;;;;;;;5055210;28;20116;-69
2022/03/16 13:56:25;;;;;;;19.85;13.60;;;;;;;;;;5054093;28;20083;-69
2022/03/16 13:58:54;;;;;;;23.58;15.95;;;;;;;;;;5055316;28;20049;-69
2022/03/16 14:01:23;;;;;;;23.48;15.70;;;;;;;;;;5055077;28;20017;-69
2022/03/16 14:04:03;;;;;;;20.67;16.33;;;;;;;;;;5055289;28;20029;-69
2022/03/16 14:06:37;;;;;;;23.42;17.38;;;;;;;;;;5053887;28;20039;-69
2022/03/16 14:09:10;;;;;;;26.02;17.63;;;;;;;;;;5054876;28;20506;-69
2022/03/16 14:11:36;;;;;;;23.15;15.68;;;;;;;;;;5054864;28;20078;-69
2022/03/16 14:14:09;;;;;;;17.88;14.10;;;;;;;;;;5054799;28;20023;-69
2022/03/16 14:16:35;;;;;;;17.45;14.70;;;;;;;;;;5054950;28;20021;-69
2022/03/16 14:19:00;;;;;;;22.45;15.18;;;;;;;;;;5054682;28;20497;-69
2022/03/16 14:21:26;;;;;;;24.42;15.38;;;;;;;;;;5053314;28;20512;-69
2022/03/16 14:23:51;;;;;;;21.40;14.70;;;;;;;;;;5053578;28;20462;-69
2022/03/16 14:26:19;;;;;;;23.63;16.58;;;;;;;;;;5054249;28;20045;-69
2022/03/16 14:28:46;;;;;;;21.73;15.27;;;;;;;;;;5054628;28;20033;-69
2022/03/16 14:31:11;;;;;;;20.95;15.57;;;;;;;;;;5054481;28;20037;-69
2022/03/16 14:33:36;;;;;;;19.13;14.90;;;;;;;;;;5054539;28;20514;-69
2022/03/16 14:36:02;;;;;;;54.08;47.78;;;;;;;;;;5053407;28;20028;-70